Time;durP1;ratioP1;P1;durP2;ratioP2;P2;SDS_P1;SDS_P2;PMS_P1;PMS_P2;Temp;Humidity;BMP_temperature;BMP_pressure;BME280_temperature;BME280_humidity;BME280_pressure;Samples;Min_cycle;Max_cycle;Signal;HPM_P1;HPM_P2
2022/08/04 00:01:12;;;;;;;15.85;15.25;;;;;;;;;;5093767;28;20243;-80
2022/08/04 00:03:43;;;;;;;15.98;15.38;;;;;;;;;;5094445;28;20202;-77
2022/08/04 00:06:13;;;;;;;16.30;15.70;;;;;;;;;;5093689;28;20194;-78
2022/08/04 00:08:42;;;;;;;15.85;15.25;;;;;;;;;;5093551;28;20655;-77
2022/08/04 00:11:10;;;;;;;17.00;16.30;;;;;;;;;;5093585;28;20209;-78
2022/08/04 00:13:38;;;;;;;15.40;14.80;;;;;;;;;;5093510;28;20194;-79
2022/08/04 00:16:06;;;;;;;15.15;14.55;;;;;;;;;;5093891;28;20268;-80
2022/08/04 00:18:35;;;;;;;15.07;14.57;;;;;;;;;;5093376;28;20190;-76
2022/08/04 00:21:05;;;;;;;14.95;14.45;;;;;;;;;;5093378;28;20193;-78
2022/08/04 00:23:35;;;;;;;15.38;14.77;;;;;;;;;;5093647;28;20202;-78
2022/08/04 00:26:02;;;;;;;16.48;15.77;;;;;;;;;;5093557;28;20596;-80
2022/08/04 00:28:29;;;;;;;15.80;15.20;;;;;;;;;;5094059;28;20204;-79
2022/08/04 00:30:56;;;;;;;15.50;14.90;;;;;;;;;;5093377;28;20193;-76
2022/08/04 00:33:23;;;;;;;15.25;14.65;;;;;;;;;;5093131;28;20194;-81
2022/08/04 00:35:51;;;;;;;15.48;14.88;;;;;;;;;;5092940;28;20321;-80
2022/08/04 00:38:18;;;;;;;15.63;15.02;;;;;;;;;;5093375;28;20198;-78
2022/08/04 00:40:50;;;;;;;13.98;13.48;;;;;;;;;;5092985;28;20202;-79
2022/08/04 00:43:22;;;;;;;15.50;14.90;;;;;;;;;;5092930;28;20626;-79
2022/08/04 00:46:00;;;;;;;15.38;14.77;;;;;;;;;;5093238;28;20182;-79
2022/08/04 00:48:35;;;;;;;15.48;14.88;;;;;;;;;;5093452;28;20208;-80
2022/08/04 00:51:10;;;;;;;15.38;14.77;;;;;;;;;;5092856;28;20220;-80
2022/08/04 00:53:44;;;;;;;15.40;14.80;;;;;;;;;;5093158;28;20185;-78
2022/08/04 00:56:22;;;;;;;15.43;14.82;;;;;;;;;;5091826;28;20267;-78
2022/08/04 00:58:59;;;;;;;14.90;14.40;;;;;;;;;;5092776;28;20189;-76
2022/08/04 01:01:31;;;;;;;15.18;14.57;;;;;;;;;;5092636;28;20186;-79
2022/08/04 01:04:01;;;;;;;15.30;14.70;;;;;;;;;;5092932;28;20247;-79
2022/08/04 01:06:34;;;;;;;15.20;14.60;;;;;;;;;;5092595;28;20193;-78
2022/08/04 01:09:08;;;;;;;14.88;14.27;;;;;;;;;;5092611;28;20194;-80
2022/08/04 01:11:44;;;;;;;15.20;14.60;;;;;;;;;;5092529;28;20190;-79
2022/08/04 01:14:17;;;;;;;15.20;14.60;;;;;;;;;;5092498;28;20193;-76
2022/08/04 01:16:48;;;;;;;14.45;13.95;;;;;;;;;;5092352;28;20284;-78
2022/08/04 01:19:22;;;;;;;14.82;14.32;;;;;;;;;;5092422;28;20620;-77
2022/08/04 01:22:03;;;;;;;14.85;14.35;;;;;;;;;;5092544;28;20207;-80
2022/08/04 01:24:41;;;;;;;14.70;14.20;;;;;;;;;;5092297;28;20190;-80
2022/08/04 01:27:12;;;;;;;15.43;14.82;;;;;;;;;;5092280;28;20182;-76
2022/08/04 01:29:44;;;;;;;14.88;14.38;;;;;;;;;;5093086;28;20182;-77
2022/08/04 01:32:14;;;;;;;13.98;13.48;;;;;;;;;;5092222;28;20592;-78
2022/08/04 01:34:42;;;;;;;14.30;13.80;;;;;;;;;;5092376;28;20307;-79
2022/08/04 01:37:16;;;;;;;14.68;14.18;;;;;;;;;;5092111;28;20231;-79
2022/08/04 01:39:49;;;;;;;14.57;14.07;;;;;;;;;;5092194;28;20737;-77
2022/08/04 01:42:18;;;;;;;15.35;14.75;;;;;;;;;;5092122;28;20721;-79
2022/08/04 01:44:48;;;;;;;14.20;13.70;;;;;;;;;;5092420;28;20204;-80
2022/08/04 01:47:17;;;;;;;14.63;14.13;;;;;;;;;;5092536;28;20194;-80
2022/08/04 01:49:46;;;;;;;15.27;14.68;;;;;;;;;;5092043;28;20198;-77
2022/08/04 01:52:16;;;;;;;14.80;14.30;;;;;;;;;;5092749;28;20194;-77
2022/08/04 01:54:44;;;;;;;15.15;14.55;;;;;;;;;;5091948;28;20574;-76
2022/08/04 01:57:11;;;;;;;14.52;14.02;;;;;;;;;;5091918;28;20193;-77
2022/08/04 01:59:39;;;;;;;14.18;13.68;;;;;;;;;;5091951;28;20231;-79
2022/08/04 02:02:07;;;;;;;14.48;13.98;;;;;;;;;;5092231;28;20189;-80
2022/08/04 02:04:35;;;;;;;13.75;13.25;;;;;;;;;;5091868;28;20278;-80
2022/08/04 02:07:16;;;;;;;13.80;13.30;;;;;;;;;;5092915;28;20555;-80
2022/08/04 02:09:47;;;;;;;13.35;12.95;;;;;;;;;;5096178;28;20740;-80
2022/08/04 02:12:18;;;;;;;13.32;12.93;;;;;;;;;;5095922;28;20190;-76
2022/08/04 02:14:49;;;;;;;13.27;12.88;;;;;;;;;;5095782;28;20186;-77
2022/08/04 02:17:29;;;;;;;13.10;12.70;;;;;;;;;;5095530;28;20260;-77
2022/08/04 02:20:07;;;;;;;12.80;12.40;;;;;;;;;;5096636;28;20190;-78
2022/08/04 02:22:35;;;;;;;12.80;12.40;;;;;;;;;;5095988;28;20189;-79
2022/08/04 02:25:05;;;;;;;11.95;11.55;;;;;;;;;;5095992;28;20202;-79
2022/08/04 02:27:34;;;;;;;12.55;12.15;;;;;;;;;;5095689;28;20197;-79
2022/08/04 02:30:04;;;;;;;12.95;12.55;;;;;;;;;;5095563;28;20189;-79
2022/08/04 02:32:37;;;;;;;12.70;12.30;;;;;;;;;;5095456;28;20617;-78
2022/08/04 02:35:06;;;;;;;12.32;11.93;;;;;;;;;;5095625;28;20316;-80
2022/08/04 02:37:34;;;;;;;12.25;11.85;;;;;;;;;;5095473;28;20201;-80
2022/08/04 02:40:02;;;;;;;12.30;11.90;;;;;;;;;;5095401;28;20201;-79
2022/08/04 02:42:29;;;;;;;12.30;11.90;;;;;;;;;;5095292;28;20194;-79
2022/08/04 02:44:57;;;;;;;12.07;11.68;;;;;;;;;;5095545;28;20193;-80
2022/08/04 02:47:25;;;;;;;11.90;11.50;;;;;;;;;;5095183;28;20248;-78
2022/08/04 02:49:54;;;;;;;11.85;11.45;;;;;;;;;;5095962;28;20243;-79
2022/08/04 02:52:21;;;;;;;12.10;11.70;;;;;;;;;;5095110;28;20590;-80
2022/08/04 02:54:51;;;;;;;10.98;10.68;;;;;;;;;;5094995;28;20201;-79
2022/08/04 02:57:18;;;;;;;11.10;10.80;;;;;;;;;;5095286;28;20220;-80
2022/08/04 02:59:55;;;;;;;11.00;10.70;;;;;;;;;;5094935;28;20198;-76
2022/08/04 03:02:27;;;;;;;11.90;11.50;;;;;;;;;;5094995;28;20185;-80
2022/08/04 03:04:57;;;;;;;11.95;11.55;;;;;;;;;;5094919;28;20585;-78
2022/08/04 03:07:38;;;;;;;11.90;11.50;;;;;;;;;;5094854;28;20674;-79
2022/08/04 03:10:20;;;;;;;12.30;11.90;;;;;;;;;;5095185;28;20192;-80
2022/08/04 03:12:59;;;;;;;11.85;11.45;;;;;;;;;;5094741;28;20223;-77
2022/08/04 03:15:43;;;;;;;11.50;11.10;;;;;;;;;;5094665;28;20213;-79
2022/08/04 03:18:27;;;;;;;12.00;11.60;;;;;;;;;;5094017;28;20233;-79
2022/08/04 03:21:07;;;;;;;11.00;10.70;;;;;;;;;;5094857;28;20209;-79
2022/08/04 03:23:50;;;;;;;11.15;10.85;;;;;;;;;;5094537;28;20665;-78
2022/08/04 03:26:41;;;;;;;11.30;11.00;;;;;;;;;;5094846;28;20212;-77
2022/08/04 03:29:24;;;;;;;11.40;11.00;;;;;;;;;;5094432;28;20196;-77
2022/08/04 03:32:09;;;;;;;11.18;10.88;;;;;;;;;;5094636;28;20186;-76
2022/08/04 03:34:44;;;;;;;11.32;11.02;;;;;;;;;;5094613;28;20223;-80
2022/08/04 03:37:28;;;;;;;11.20;10.90;;;;;;;;;;5094575;28;20217;-76
2022/08/04 03:40:20;;;;;;;11.45;11.05;;;;;;;;;;5088031;28;20289;-76
2022/08/04 03:43:05;;;;;;;12.70;12.30;;;;;;;;;;5094214;28;20194;-76
2022/08/04 03:45:44;;;;;;;12.10;11.70;;;;;;;;;;5094099;28;20597;-76
2022/08/04 03:48:33;;;;;;;12.10;11.70;;;;;;;;;;5094078;28;20576;-78
2022/08/04 03:54:09;;;;;;;12.00;11.60;;;;;;;;;;5094360;28;20223;-79
2022/08/04 03:56:47;;;;;;;11.60;11.20;;;;;;;;;;5094884;28;20282;-77
2022/08/04 03:59:40;;;;;;;11.60;11.20;;;;;;;;;;5094182;28;20232;-81
2022/08/04 04:02:22;;;;;;;12.20;11.80;;;;;;;;;;5069234;28;20197;-76
2022/08/04 04:05:00;;;;;;;12.52;12.13;;;;;;;;;;5093768;28;20186;-80
2022/08/04 04:07:38;;;;;;;12.98;12.57;;;;;;;;;;5093966;28;20219;-78
2022/08/04 04:10:16;;;;;;;13.90;13.40;;;;;;;;;;5093624;28;20182;-81
2022/08/04 04:13:02;;;;;;;14.50;14.00;;;;;;;;;;5093544;28;20189;-81
2022/08/04 04:15:38;;;;;;;13.60;13.10;;;;;;;;;;5093474;28;20227;-81
2022/08/04 04:18:20;;;;;;;13.73;13.23;;;;;;;;;;5093491;28;20251;-75
2022/08/04 04:20:57;;;;;;;13.30;12.90;;;;;;;;;;5092033;28;20197;-77
2022/08/04 04:23:30;;;;;;;13.20;12.80;;;;;;;;;;5094261;28;20185;-80
2022/08/04 04:26:04;;;;;;;13.70;13.20;;;;;;;;;;5093297;28;20194;-75
2022/08/04 04:28:54;;;;;;;14.07;13.57;;;;;;;;;;5093286;28;20186;-81
2022/08/04 04:31:32;;;;;;;14.98;14.48;;;;;;;;;;5093123;28;20645;-80
2022/08/04 04:34:05;;;;;;;15.65;15.05;;;;;;;;;;5093107;28;20276;-80
2022/08/04 04:36:37;;;;;;;15.82;15.23;;;;;;;;;;5093019;28;20221;-80
2022/08/04 04:39:12;;;;;;;16.30;15.70;;;;;;;;;;5093149;28;20193;-77
2022/08/04 04:41:48;;;;;;;16.35;15.75;;;;;;;;;;5093441;28;20181;-77
2022/08/04 04:44:29;;;;;;;18.33;17.52;;;;;;;;;;5093316;28;20181;-78
2022/08/04 04:47:01;;;;;;;20.23;19.33;;;;;;;;;;5091198;28;20624;-81
2022/08/04 04:49:31;;;;;;;20.60;19.60;;;;;;;;;;5092935;28;20231;-76
2022/08/04 04:52:01;;;;;;;18.48;17.60;;;;;;;;;;5092894;28;20190;-78
2022/08/04 04:54:33;;;;;;;17.17;16.38;;;;;;;;;;5093018;28;20280;-81
2022/08/04 04:57:04;;;;;;;17.30;16.50;;;;;;;;;;5092951;28;20246;-80
2022/08/04 04:59:34;;;;;;;15.90;15.20;;;;;;;;;;5092695;28;20205;-77
2022/08/04 05:02:14;;;;;;;15.95;15.25;;;;;;;;;;5093178;28;20194;-80
2022/08/04 05:04:57;;;;;;;16.55;15.85;;;;;;;;;;5092654;28;20189;-81
2022/08/04 05:07:36;;;;;;;15.80;15.10;;;;;;;;;;5092589;28;20185;-79
2022/08/04 05:10:07;;;;;;;16.10;15.40;;;;;;;;;;5092901;28;20570;-81
2022/08/04 05:12:42;;;;;;;16.27;15.57;;;;;;;;;;5092734;28;20213;-76
2022/08/04 05:15:10;;;;;;;16.48;15.77;;;;;;;;;;5092480;28;20186;-80
2022/08/04 05:17:40;;;;;;;16.17;15.48;;;;;;;;;;5092371;28;20607;-79
2022/08/04 05:20:10;;;;;;;16.23;15.52;;;;;;;;;;5092631;28;20569;-77
2022/08/04 05:22:39;;;;;;;16.77;15.98;;;;;;;;;;5092317;28;20205;-82
2022/08/04 05:25:08;;;;;;;16.30;15.60;;;;;;;;;;5092315;28;20194;-76
2022/08/04 05:27:37;;;;;;;16.42;15.73;;;;;;;;;;5092535;28;20198;-79
2022/08/04 05:30:09;;;;;;;17.08;16.17;;;;;;;;;;5092222;28;20284;-82
2022/08/04 05:32:44;;;;;;;17.25;16.35;;;;;;;;;;5092268;28;20190;-82
2022/08/04 05:35:14;;;;;;;16.92;16.13;;;;;;;;;;5092188;28;20272;-80
2022/08/04 05:37:44;;;;;;;16.67;15.88;;;;;;;;;;5092977;28;20263;-76
2022/08/04 05:40:12;;;;;;;16.85;16.05;;;;;;;;;;5092090;28;20720;-81
2022/08/04 05:42:40;;;;;;;16.40;15.70;;;;;;;;;;5091836;28;20225;-78
2022/08/04 05:45:08;;;;;;;15.95;15.25;;;;;;;;;;5092076;28;20198;-81
2022/08/04 05:47:36;;;;;;;16.02;15.32;;;;;;;;;;5092045;28;20232;-76
2022/08/04 05:50:06;;;;;;;15.98;15.18;;;;;;;;;;5092006;28;20193;-81
2022/08/04 05:52:35;;;;;;;16.15;15.35;;;;;;;;;;5092223;28;20197;-79
2022/08/04 05:55:02;;;;;;;16.33;15.52;;;;;;;;;;5091963;28;20277;-76
2022/08/04 05:57:30;;;;;;;17.20;16.30;;;;;;;;;;5091799;28;20226;-82
2022/08/04 05:59:58;;;;;;;16.65;15.75;;;;;;;;;;5091923;28;20198;-79
2022/08/04 06:02:28;;;;;;;16.70;15.80;;;;;;;;;;5092425;28;20228;-76
2022/08/04 06:04:55;;;;;;;17.15;16.25;;;;;;;;;;5091910;28;20659;-79
2022/08/04 06:07:25;;;;;;;17.45;16.55;;;;;;;;;;5091828;28;20193;-80
2022/08/04 06:09:52;;;;;;;17.70;16.80;;;;;;;;;;5091985;28;20198;-80
2022/08/04 06:12:21;;;;;;;17.10;16.20;;;;;;;;;;5091765;28;20194;-81
2022/08/04 06:14:51;;;;;;;20.05;18.95;;;;;;;;;;5091749;28;20198;-76
2022/08/04 06:17:22;;;;;;;18.02;17.02;;;;;;;;;;5091419;28;20233;-81
2022/08/04 06:19:50;;;;;;;17.58;16.67;;;;;;;;;;5091894;28;20247;-77
2022/08/04 06:22:18;;;;;;;17.17;16.27;;;;;;;;;;5091740;28;20644;-77
2022/08/04 06:24:48;;;;;;;18.30;17.35;;;;;;;;;;5091657;28;20189;-83
2022/08/04 06:27:16;;;;;;;17.77;16.85;;;;;;;;;;5091788;28;20197;-81
2022/08/04 06:29:45;;;;;;;16.90;16.02;;;;;;;;;;5091617;28;20197;-81
2022/08/04 06:32:26;;;;;;;17.48;16.58;;;;;;;;;;5091706;28;20190;-82
2022/08/04 06:34:54;;;;;;;17.75;16.85;;;;;;;;;;5092345;28;20224;-81
2022/08/04 06:37:22;;;;;;;17.48;16.58;;;;;;;;;;5091721;28;20223;-82
2022/08/04 06:39:52;;;;;;;17.52;16.63;;;;;;;;;;5092187;28;20230;-82
2022/08/04 06:42:21;;;;;;;19.27;18.27;;;;;;;;;;5091788;28;20225;-80
2022/08/04 06:44:50;;;;;;;19.23;18.23;;;;;;;;;;5092156;28;20198;-81
2022/08/04 06:47:19;;;;;;;17.83;16.92;;;;;;;;;;5091630;28;20194;-79
2022/08/04 06:49:48;;;;;;;17.50;16.60;;;;;;;;;;5091569;28;20198;-82
2022/08/04 06:52:16;;;;;;;18.13;17.23;;;;;;;;;;5091456;28;20208;-79
2022/08/04 06:54:44;;;;;;;17.75;16.85;;;;;;;;;;5093913;28;20198;-81
2022/08/04 06:57:13;;;;;;;18.05;17.05;;;;;;;;;;5095320;28;20261;-76
2022/08/04 06:59:41;;;;;;;18.83;17.83;;;;;;;;;;5094956;28;20224;-80
2022/08/04 07:02:11;;;;;;;18.40;17.40;;;;;;;;;;5095523;28;20189;-82
2022/08/04 07:04:38;;;;;;;18.15;17.15;;;;;;;;;;5095490;28;20197;-81
2022/08/04 07:07:05;;;;;;;18.77;17.77;;;;;;;;;;5095441;28;20205;-80
2022/08/04 07:09:32;;;;;;;18.80;17.80;;;;;;;;;;5094893;28;20244;-80
2022/08/04 07:11:59;;;;;;;19.80;18.70;;;;;;;;;;5095191;28;20193;-80
2022/08/04 07:14:28;;;;;;;19.70;18.60;;;;;;;;;;5094828;28;20190;-80
2022/08/04 07:16:56;;;;;;;21.13;19.77;;;;;;;;;;5094754;28;20237;-82
2022/08/04 07:19:23;;;;;;;19.77;18.67;;;;;;;;;;5094617;28;20285;-75
2022/08/04 07:21:50;;;;;;;20.25;19.15;;;;;;;;;;5094600;28;20190;-75
2022/08/04 07:24:17;;;;;;;20.08;18.98;;;;;;;;;;5094773;28;20198;-79
2022/08/04 07:26:44;;;;;;;20.45;19.25;;;;;;;;;;5094626;28;20208;-82
2022/08/04 07:29:12;;;;;;;20.17;18.95;;;;;;;;;;5094561;28;20190;-78
2022/08/04 07:31:41;;;;;;;20.85;19.65;;;;;;;;;;5094990;28;20229;-79
2022/08/04 07:34:08;;;;;;;20.65;19.35;;;;;;;;;;5095114;28;20205;-79
2022/08/04 07:36:35;;;;;;;20.92;19.63;;;;;;;;;;5094674;28;20225;-82
2022/08/04 07:39:02;;;;;;;20.65;19.38;;;;;;;;;;5094212;28;20198;-81
2022/08/04 07:41:28;;;;;;;21.30;20.00;;;;;;;;;;5094478;28;20194;-77
2022/08/04 07:43:55;;;;;;;20.70;19.50;;;;;;;;;;5094808;28;20250;-75
2022/08/04 07:46:22;;;;;;;20.40;19.20;;;;;;;;;;5094247;28;20198;-75
2022/08/04 07:48:51;;;;;;;20.70;19.45;;;;;;;;;;5094067;28;20255;-80
2022/08/04 07:51:18;;;;;;;20.35;19.15;;;;;;;;;;5093984;28;20202;-75
2022/08/04 07:53:46;;;;;;;20.75;19.55;;;;;;;;;;5094312;28;20247;-84
2022/08/04 07:56:13;;;;;;;20.33;19.13;;;;;;;;;;5093796;28;20198;-83
2022/08/04 07:58:40;;;;;;;20.58;19.38;;;;;;;;;;5093808;28;20221;-76
2022/08/04 08:01:07;;;;;;;18.85;17.65;;;;;;;;;;5093928;28;20243;-76
2022/08/04 08:03:34;;;;;;;19.02;17.83;;;;;;;;;;5094386;28;20208;-77
2022/08/04 08:06:04;;;;;;;18.58;17.38;;;;;;;;;;5093411;28;20193;-82
2022/08/04 08:08:31;;;;;;;18.65;17.45;;;;;;;;;;5094462;28;20640;-76
2022/08/04 08:10:58;;;;;;;18.95;17.75;;;;;;;;;;5094431;28;20202;-81
2022/08/04 08:13:25;;;;;;;19.40;18.20;;;;;;;;;;5093889;28;20202;-78
2022/08/04 08:15:52;;;;;;;19.42;18.13;;;;;;;;;;5093533;28;20198;-78
2022/08/04 08:18:19;;;;;;;19.30;18.00;;;;;;;;;;5093527;28;20244;-78
2022/08/04 08:20:46;;;;;;;19.42;18.13;;;;;;;;;;5093710;28;20200;-80
2022/08/04 08:23:15;;;;;;;19.27;18.08;;;;;;;;;;5093648;28;20198;-77
2022/08/04 08:25:42;;;;;;;19.23;17.92;;;;;;;;;;5093937;28;20194;-78
2022/08/04 08:28:09;;;;;;;19.00;17.70;;;;;;;;;;5093300;28;20233;-81
2022/08/04 08:30:37;;;;;;;19.30;18.00;;;;;;;;;;5093287;28;20193;-81
2022/08/04 08:33:06;;;;;;;40.40;37.22;;;;;;;;;;5093207;28;20190;-78
2022/08/04 08:35:35;;;;;;;19.02;17.83;;;;;;;;;;5093486;28;20201;-80
2022/08/04 08:38:03;;;;;;;19.45;18.15;;;;;;;;;;5093237;28;20225;-77
2022/08/04 08:40:36;;;;;;;19.60;18.30;;;;;;;;;;5094048;28;20225;-74
2022/08/04 08:43:20;;;;;;;19.20;17.90;;;;;;;;;;5093352;28;20186;-77
2022/08/04 08:46:01;;;;;;;19.08;17.77;;;;;;;;;;5093884;28;20193;-77
2022/08/04 08:48:40;;;;;;;20.08;18.77;;;;;;;;;;5092724;28;20198;-77
2022/08/04 08:51:23;;;;;;;20.23;18.92;;;;;;;;;;5093662;28;20182;-83
2022/08/04 08:53:59;;;;;;;20.25;18.95;;;;;;;;;;5084961;28;20652;-81
2022/08/04 08:56:32;;;;;;;20.13;18.83;;;;;;;;;;5095443;28;20182;-80
2022/08/04 08:59:14;;;;;;;19.80;18.50;;;;;;;;;;5095203;28;20337;-82
2022/08/04 09:01:47;;;;;;;20.48;19.17;;;;;;;;;;5094225;28;20193;-83
2022/08/04 09:04:29;;;;;;;21.38;19.98;;;;;;;;;;5093275;28;20204;-85
2022/08/04 09:07:06;;;;;;;20.42;19.13;;;;;;;;;;5094424;28;20185;-82
2022/08/04 09:09:42;;;;;;;20.63;19.33;;;;;;;;;;5093775;28;20185;-81
2022/08/04 09:12:14;;;;;;;20.80;19.42;;;;;;;;;;5094384;28;20204;-79
2022/08/04 09:14:45;;;;;;;21.70;20.30;;;;;;;;;;5093323;28;20182;-78
2022/08/04 09:17:19;;;;;;;21.40;20.00;;;;;;;;;;5092574;28;20354;-77
2022/08/04 09:19:50;;;;;;;21.02;19.63;;;;;;;;;;5092667;28;20196;-84
2022/08/04 09:22:20;;;;;;;20.23;18.92;;;;;;;;;;5093355;28;20613;-75
2022/08/04 09:24:50;;;;;;;20.80;19.40;;;;;;;;;;5092516;28;20221;-76
2022/08/04 09:27:21;;;;;;;20.55;19.15;;;;;;;;;;5093968;28;20190;-78
2022/08/04 09:29:51;;;;;;;21.23;19.83;;;;;;;;;;5092624;28;20202;-82
2022/08/04 09:32:23;;;;;;;21.17;19.77;;;;;;;;;;5092488;28;20653;-84
2022/08/04 09:34:55;;;;;;;21.52;20.13;;;;;;;;;;5093101;28;20189;-80
2022/08/04 09:37:37;;;;;;;20.88;19.48;;;;;;;;;;5092957;28;20270;-82
2022/08/04 09:40:07;;;;;;;21.08;19.67;;;;;;;;;;5092508;28;20190;-81
2022/08/04 09:42:41;;;;;;;20.33;18.92;;;;;;;;;;5092722;28;20247;-81
2022/08/04 09:45:12;;;;;;;20.73;19.33;;;;;;;;;;5092181;28;20197;-82
2022/08/04 09:47:45;;;;;;;20.10;18.80;;;;;;;;;;5092422;28;20327;-79
2022/08/04 09:50:26;;;;;;;20.20;18.90;;;;;;;;;;5092311;28;20192;-77
2022/08/04 09:52:58;;;;;;;23.67;22.17;;;;;;;;;;5092048;28;20243;-82
2022/08/04 09:55:31;;;;;;;33.22;30.83;;;;;;;;;;5092427;28;20190;-83
2022/08/04 09:58:05;;;;;;;20.58;19.17;;;;;;;;;;5092280;28;20595;-83
2022/08/04 10:00:35;;;;;;;23.58;22.08;;;;;;;;;;5092323;28;20574;-84
2022/08/04 10:03:02;;;;;;;20.85;19.45;;;;;;;;;;5092528;28;20194;-76
2022/08/04 10:05:40;;;;;;;20.85;19.52;;;;;;;;;;5092464;28;20200;-77
2022/08/04 10:08:18;;;;;;;20.95;19.55;;;;;;;;;;5092428;28;20218;-82
2022/08/04 10:10:51;;;;;;;20.90;19.50;;;;;;;;;;5092887;28;20189;-85
2022/08/04 10:13:29;;;;;;;20.63;19.23;;;;;;;;;;5091949;28;20186;-83
2022/08/04 10:16:10;;;;;;;20.85;19.45;;;;;;;;;;5092962;28;20298;-83
2022/08/04 10:18:44;;;;;;;21.05;19.65;;;;;;;;;;5092703;28;20217;-83
2022/08/04 10:21:16;;;;;;;20.60;19.20;;;;;;;;;;5092666;28;20274;-82
2022/08/04 10:23:49;;;;;;;21.95;20.55;;;;;;;;;;5092662;28;20193;-81
2022/08/04 10:26:24;;;;;;;20.65;19.25;;;;;;;;;;5092628;28;20190;-82
2022/08/04 10:28:54;;;;;;;22.23;20.73;;;;;;;;;;5094608;28;20189;-83
2022/08/04 10:31:24;;;;;;;21.88;20.48;;;;;;;;;;5097276;28;20251;-76
2022/08/04 10:33:54;;;;;;;21.80;20.30;;;;;;;;;;5097308;28;20190;-80
2022/08/04 10:36:23;;;;;;;22.77;21.27;;;;;;;;;;5096641;28;20287;-80
2022/08/04 10:38:52;;;;;;;23.00;21.50;;;;;;;;;;5096593;28;20229;-76
2022/08/04 10:41:25;;;;;;;22.27;20.77;;;;;;;;;;5096158;28;20223;-78
2022/08/04 10:43:59;;;;;;;22.38;20.88;;;;;;;;;;5097319;28;20186;-80
2022/08/04 10:46:30;;;;;;;23.88;22.30;;;;;;;;;;5096101;28;20182;-75
2022/08/04 10:48:57;;;;;;;22.17;20.67;;;;;;;;;;5095929;28;20197;-77
2022/08/04 10:51:28;;;;;;;22.10;20.60;;;;;;;;;;5095689;28;20711;-81
2022/08/04 10:53:57;;;;;;;22.90;21.40;;;;;;;;;;5095579;28;20193;-82
2022/08/04 10:56:29;;;;;;;22.60;21.10;;;;;;;;;;5095349;28;20280;-75
2022/08/04 10:59:01;;;;;;;22.05;20.55;;;;;;;;;;5095833;28;20229;-77
2022/08/04 11:01:31;;;;;;;23.20;21.70;;;;;;;;;;5095222;28;20265;-81
2022/08/04 11:04:00;;;;;;;22.92;21.42;;;;;;;;;;5095309;28;20198;-84
2022/08/04 11:06:28;;;;;;;23.05;21.45;;;;;;;;;;5094941;28;20194;-74
2022/08/04 11:08:56;;;;;;;22.25;20.75;;;;;;;;;;5094866;28;20193;-80
2022/08/04 11:11:26;;;;;;;21.45;19.95;;;;;;;;;;5095299;28;20273;-76
2022/08/04 11:13:59;;;;;;;21.73;20.23;;;;;;;;;;5095101;28;20265;-82
2022/08/04 11:16:29;;;;;;;21.73;20.23;;;;;;;;;;5094526;28;20646;-78
2022/08/04 11:19:03;;;;;;;22.17;20.58;;;;;;;;;;5095143;28;20296;-81
2022/08/04 11:21:33;;;;;;;20.98;19.48;;;;;;;;;;5095063;28;20196;-76
2022/08/04 11:24:03;;;;;;;21.05;19.55;;;;;;;;;;5094944;28;20186;-84
2022/08/04 11:26:33;;;;;;;21.27;19.77;;;;;;;;;;5094513;28;20198;-79
2022/08/04 11:29:05;;;;;;;20.98;19.48;;;;;;;;;;5094966;28;20190;-77
2022/08/04 11:31:36;;;;;;;22.20;20.60;;;;;;;;;;5094575;28;20197;-81
2022/08/04 11:34:04;;;;;;;21.70;20.20;;;;;;;;;;5094767;28;20556;-80
2022/08/04 11:36:40;;;;;;;21.75;20.25;;;;;;;;;;5094643;28;20662;-80
2022/08/04 11:39:10;;;;;;;22.25;20.75;;;;;;;;;;5093877;28;20220;-77
2022/08/04 11:41:46;;;;;;;21.88;20.38;;;;;;;;;;5093849;28;20568;-79
2022/08/04 11:44:18;;;;;;;21.95;20.45;;;;;;;;;;5094547;28;20609;-75
2022/08/04 11:46:48;;;;;;;21.52;20.02;;;;;;;;;;5094105;28;20189;-79
2022/08/04 11:49:20;;;;;;;22.23;20.63;;;;;;;;;;5093990;28;20659;-80
2022/08/04 11:51:48;;;;;;;22.02;20.52;;;;;;;;;;5094023;28;20197;-79
2022/08/04 11:54:16;;;;;;;21.92;20.42;;;;;;;;;;5094089;28;20205;-80
2022/08/04 11:56:43;;;;;;;22.17;20.67;;;;;;;;;;5093957;28;20255;-82
2022/08/04 11:59:10;;;;;;;22.13;20.63;;;;;;;;;;5093706;28;20229;-74
2022/08/04 12:01:42;;;;;;;21.73;20.23;;;;;;;;;;5093785;28;20193;-84
2022/08/04 12:04:14;;;;;;;22.52;20.92;;;;;;;;;;5093755;28;20272;-78
2022/08/04 12:06:45;;;;;;;22.35;20.75;;;;;;;;;;5093901;28;20277;-77
2022/08/04 12:09:18;;;;;;;21.85;20.25;;;;;;;;;;5094018;28;20272;-73
2022/08/04 12:11:52;;;;;;;21.88;20.38;;;;;;;;;;5093660;28;20229;-75
2022/08/04 12:14:27;;;;;;;22.10;20.50;;;;;;;;;;5093701;28;20224;-75
2022/08/04 12:16:58;;;;;;;22.10;20.50;;;;;;;;;;5093568;28;20599;-74
2022/08/04 12:19:29;;;;;;;21.98;20.38;;;;;;;;;;5093590;28;20268;-75
2022/08/04 12:21:59;;;;;;;21.98;20.38;;;;;;;;;;5093634;28;20182;-73
2022/08/04 12:24:31;;;;;;;23.13;21.50;;;;;;;;;;5093448;28;20255;-78
2022/08/04 12:27:03;;;;;;;21.85;20.35;;;;;;;;;;5093504;28;20186;-77
2022/08/04 12:29:34;;;;;;;22.23;20.63;;;;;;;;;;5093431;28;20196;-78
2022/08/04 12:32:02;;;;;;;23.23;21.63;;;;;;;;;;5093595;28;20558;-74
2022/08/04 12:34:32;;;;;;;22.38;20.77;;;;;;;;;;5093680;28;20190;-74
2022/08/04 12:37:12;;;;;;;22.55;20.95;;;;;;;;;;5093432;28;20277;-77
2022/08/04 12:39:40;;;;;;;20.60;19.00;;;;;;;;;;5093168;28;20216;-74
2022/08/04 12:42:11;;;;;;;20.52;18.92;;;;;;;;;;5093318;28;20198;-77
2022/08/04 12:44:40;;;;;;;22.30;20.00;;;;;;;;;;5093811;28;20207;-80
2022/08/04 12:47:08;;;;;;;21.08;19.48;;;;;;;;;;5092890;28;20194;-71
2022/08/04 12:49:37;;;;;;;21.52;19.92;;;;;;;;;;5093193;28;20200;-72
2022/08/04 12:52:06;;;;;;;21.95;20.35;;;;;;;;;;5092835;28;20196;-71
2022/08/04 12:54:34;;;;;;;22.13;20.42;;;;;;;;;;5092922;28;20255;-73
2022/08/04 12:57:02;;;;;;;21.85;20.25;;;;;;;;;;5092785;28;20233;-75
2022/08/04 12:59:29;;;;;;;21.23;19.60;;;;;;;;;;5092693;28;20226;-72
2022/08/04 13:01:57;;;;;;;22.08;20.38;;;;;;;;;;5092720;28;20564;-78
2022/08/04 13:04:25;;;;;;;21.02;19.33;;;;;;;;;;5092576;28;20636;-73
2022/08/04 13:06:57;;;;;;;21.27;19.65;;;;;;;;;;5092592;28;20247;-74
2022/08/04 13:09:27;;;;;;;21.80;20.13;;;;;;;;;;5092946;28;20194;-73
2022/08/04 13:11:56;;;;;;;22.75;21.13;;;;;;;;;;5092886;28;20236;-74
2022/08/04 13:14:25;;;;;;;21.60;20.00;;;;;;;;;;5092852;28;20207;-73
2022/08/04 13:16:57;;;;;;;22.77;21.08;;;;;;;;;;5092475;28;20674;-76
2022/08/04 13:19:24;;;;;;;22.33;20.73;;;;;;;;;;5092433;28;20221;-78
2022/08/04 13:21:56;;;;;;;23.85;22.15;;;;;;;;;;5093119;28;20854;-74
2022/08/04 13:24:24;;;;;;;22.58;20.88;;;;;;;;;;5092487;28;20189;-73
2022/08/04 13:26:53;;;;;;;23.70;22.00;;;;;;;;;;5092414;28;20665;-73
2022/08/04 13:29:20;;;;;;;23.58;21.88;;;;;;;;;;5092300;28;20200;-75
2022/08/04 13:31:47;;;;;;;22.80;21.10;;;;;;;;;;5092218;28;20197;-85
2022/08/04 13:34:15;;;;;;;21.33;19.73;;;;;;;;;;5092732;28;20215;-76
2022/08/04 13:36:43;;;;;;;23.30;21.60;;;;;;;;;;5092319;28;20194;-78
2022/08/04 13:39:16;;;;;;;24.05;22.35;;;;;;;;;;5092158;28;20282;-84
2022/08/04 13:41:45;;;;;;;21.88;20.27;;;;;;;;;;5092310;28;20217;-76
2022/08/04 13:44:13;;;;;;;22.30;20.70;;;;;;;;;;5092119;28;20193;-77
2022/08/04 13:46:41;;;;;;;23.15;21.45;;;;;;;;;;5092148;28;20280;-77
2022/08/04 13:49:10;;;;;;;23.60;21.90;;;;;;;;;;5092392;28;20655;-81
2022/08/04 13:51:37;;;;;;;22.73;21.02;;;;;;;;;;5092518;28;20198;-76
2022/08/04 13:54:04;;;;;;;24.88;23.08;;;;;;;;;;5091974;28;20280;-80
2022/08/04 13:56:35;;;;;;;21.90;20.20;;;;;;;;;;5092172;28;20243;-80
2022/08/04 13:59:03;;;;;;;22.13;20.42;;;;;;;;;;5092105;28;20209;-76
2022/08/04 14:01:30;;;;;;;25.67;23.88;;;;;;;;;;5092264;28;20194;-76
2022/08/04 14:03:59;;;;;;;22.63;21.00;;;;;;;;;;5094735;28;20196;-78
2022/08/04 14:06:28;;;;;;;21.52;19.92;;;;;;;;;;5096142;28;20284;-77
2022/08/04 14:08:56;;;;;;;20.88;19.27;;;;;;;;;;5096085;28;20259;-76
2022/08/04 14:11:32;;;;;;;21.00;19.40;;;;;;;;;;5095904;28;20259;-78
2022/08/04 14:14:00;;;;;;;21.60;19.90;;;;;;;;;;5096326;28;20220;-79
2022/08/04 14:16:27;;;;;;;21.45;19.85;;;;;;;;;;5095677;28;20611;-80
2022/08/04 14:19:03;;;;;;;22.17;20.48;;;;;;;;;;5095765;28;20217;-77
2022/08/04 14:21:35;;;;;;;22.27;20.58;;;;;;;;;;5095745;28;20273;-79
2022/08/04 14:24:02;;;;;;;22.08;20.38;;;;;;;;;;5095783;28;20194;-80
2022/08/04 14:26:32;;;;;;;21.70;20.00;;;;;;;;;;5095937;28;20201;-80
2022/08/04 14:29:10;;;;;;;21.52;19.83;;;;;;;;;;5096014;28;20574;-79
2022/08/04 14:31:37;;;;;;;21.13;19.42;;;;;;;;;;5095743;28;20203;-76
2022/08/04 14:34:04;;;;;;;21.50;19.80;;;;;;;;;;5095898;28;20202;-80
2022/08/04 14:36:39;;;;;;;22.08;20.38;;;;;;;;;;5095776;28;20198;-80
2022/08/04 14:39:06;;;;;;;22.05;20.35;;;;;;;;;;5095447;28;20214;-77
2022/08/04 14:41:44;;;;;;;22.85;21.15;;;;;;;;;;5095405;28;20202;-76
2022/08/04 14:44:13;;;;;;;24.25;22.55;;;;;;;;;;5096281;28;20599;-81